sensor_id;sensor_type;location;lat;lon;timestamp;P1;durP1;ratioP1;P2;durP2;ratioP2
83410;SDS011;73340;53.132;8.174;2024-02-15T00:01:15;21.20;;;9.93;;
83410;SDS011;73340;53.132;8.174;2024-02-15T00:03:40;23.20;;;9.83;;
83410;SDS011;73340;53.132;8.174;2024-02-15T00:06:06;19.37;;;10.10;;
83410;SDS011;73340;53.132;8.174;2024-02-15T00:08:31;22.00;;;10.07;;
83410;SDS011;73340;53.132;8.174;2024-02-15T00:10:56;23.03;;;10.27;;
83410;SDS011;73340;53.132;8.174;2024-02-15T00:13:21;24.35;;;10.10;;
83410;SDS011;73340;53.132;8.174;2024-02-15T00:15:47;29.15;;;12.85;;
83410;SDS011;73340;53.132;8.174;2024-02-15T00:18:13;25.63;;;11.80;;
83410;SDS011;73340;53.132;8.174;2024-02-15T00:20:38;26.90;;;11.02;;
83410;SDS011;73340;53.132;8.174;2024-02-15T00:23:03;25.30;;;11.47;;
83410;SDS011;73340;53.132;8.174;2024-02-15T00:25:29;29.77;;;11.82;;
83410;SDS011;73340;53.132;8.174;2024-02-15T00:27:55;27.33;;;11.90;;
83410;SDS011;73340;53.132;8.174;2024-02-15T00:30:20;24.20;;;10.87;;
83410;SDS011;73340;53.132;8.174;2024-02-15T00:32:46;28.92;;;11.18;;
83410;SDS011;73340;53.132;8.174;2024-02-15T00:35:11;27.10;;;12.00;;
83410;SDS011;73340;53.132;8.174;2024-02-15T00:37:38;24.73;;;11.57;;
83410;SDS011;73340;53.132;8.174;2024-02-15T00:40:03;27.60;;;12.50;;
83410;SDS011;73340;53.132;8.174;2024-02-15T00:42:29;66.10;;;32.78;;
83410;SDS011;73340;53.132;8.174;2024-02-15T00:44:56;30.83;;;11.80;;
83410;SDS011;73340;53.132;8.174;2024-02-15T00:47:21;23.07;;;9.93;;
83410;SDS011;73340;53.132;8.174;2024-02-15T00:49:47;23.80;;;11.20;;
83410;SDS011;73340;53.132;8.174;2024-02-15T00:52:12;21.30;;;9.17;;
83410;SDS011;73340;53.132;8.174;2024-02-15T00:54:37;22.63;;;9.87;;
83410;SDS011;73340;53.132;8.174;2024-02-15T00:57:02;27.70;;;11.77;;
83410;SDS011;73340;53.132;8.174;2024-02-15T00:59:28;21.47;;;10.20;;
83410;SDS011;73340;53.132;8.174;2024-02-15T01:01:53;24.23;;;9.90;;
83410;SDS011;73340;53.132;8.174;2024-02-15T01:04:18;25.70;;;10.17;;
83410;SDS011;73340;53.132;8.174;2024-02-15T01:06:43;23.63;;;10.23;;
83410;SDS011;73340;53.132;8.174;2024-02-15T01:09:09;25.30;;;9.50;;
83410;SDS011;73340;53.132;8.174;2024-02-15T01:11:34;21.52;;;9.82;;
83410;SDS011;73340;53.132;8.174;2024-02-15T01:14:01;23.20;;;9.90;;
83410;SDS011;73340;53.132;8.174;2024-02-15T01:16:26;25.20;;;9.57;;
83410;SDS011;73340;53.132;8.174;2024-02-15T01:18:52;23.23;;;10.20;;
83410;SDS011;73340;53.132;8.174;2024-02-15T01:21:17;24.97;;;10.50;;
83410;SDS011;73340;53.132;8.174;2024-02-15T01:23:42;23.63;;;10.50;;
83410;SDS011;73340;53.132;8.174;2024-02-15T01:26:08;23.48;;;12.02;;
83410;SDS011;73340;53.132;8.174;2024-02-15T01:28:33;23.70;;;10.60;;
83410;SDS011;73340;53.132;8.174;2024-02-15T01:30:58;23.27;;;9.87;;
83410;SDS011;73340;53.132;8.174;2024-02-15T01:33:24;29.23;;;11.18;;
83410;SDS011;73340;53.132;8.174;2024-02-15T01:35:49;25.33;;;10.63;;
83410;SDS011;73340;53.132;8.174;2024-02-15T01:38:14;25.23;;;10.07;;
83410;SDS011;73340;53.132;8.174;2024-02-15T01:40:40;25.57;;;10.90;;
83410;SDS011;73340;53.132;8.174;2024-02-15T01:43:05;21.87;;;10.77;;
83410;SDS011;73340;53.132;8.174;2024-02-15T01:45:30;27.90;;;11.97;;
83410;SDS011;73340;53.132;8.174;2024-02-15T01:47:56;26.10;;;11.38;;
83410;SDS011;73340;53.132;8.174;2024-02-15T01:50:21;28.58;;;11.85;;
83410;SDS011;73340;53.132;8.174;2024-02-15T01:52:47;25.17;;;11.13;;
83410;SDS011;73340;53.132;8.174;2024-02-15T01:55:14;24.77;;;10.10;;
83410;SDS011;73340;53.132;8.174;2024-02-15T01:57:43;27.83;;;13.25;;
83410;SDS011;73340;53.132;8.174;2024-02-15T02:00:10;26.60;;;10.80;;
83410;SDS011;73340;53.132;8.174;2024-02-15T02:02:35;32.55;;;11.50;;
83410;SDS011;73340;53.132;8.174;2024-02-15T02:05:02;27.30;;;10.80;;
83410;SDS011;73340;53.132;8.174;2024-02-15T02:07:28;24.13;;;10.55;;
83410;SDS011;73340;53.132;8.174;2024-02-15T02:09:54;27.00;;;11.27;;
83410;SDS011;73340;53.132;8.174;2024-02-15T02:12:19;27.90;;;10.47;;
83410;SDS011;73340;53.132;8.174;2024-02-15T02:14:44;25.70;;;10.70;;
83410;SDS011;73340;53.132;8.174;2024-02-15T02:17:13;30.50;;;12.40;;
83410;SDS011;73340;53.132;8.174;2024-02-15T02:19:38;29.70;;;11.23;;
83410;SDS011;73340;53.132;8.174;2024-02-15T02:22:04;27.95;;;11.65;;
83410;SDS011;73340;53.132;8.174;2024-02-15T02:24:30;33.55;;;13.25;;
83410;SDS011;73340;53.132;8.174;2024-02-15T02:27:02;30.58;;;12.55;;
83410;SDS011;73340;53.132;8.174;2024-02-15T02:29:28;34.17;;;12.80;;
83410;SDS011;73340;53.132;8.174;2024-02-15T02:31:55;27.83;;;11.57;;
83410;SDS011;73340;53.132;8.174;2024-02-15T02:34:21;30.17;;;12.27;;
83410;SDS011;73340;53.132;8.174;2024-02-15T02:36:46;26.13;;;12.60;;
83410;SDS011;73340;53.132;8.174;2024-02-15T02:39:13;28.52;;;11.48;;
83410;SDS011;73340;53.132;8.174;2024-02-15T02:41:38;26.83;;;11.40;;
83410;SDS011;73340;53.132;8.174;2024-02-15T02:44:03;28.13;;;11.93;;
83410;SDS011;73340;53.132;8.174;2024-02-15T02:46:28;26.52;;;11.35;;
83410;SDS011;73340;53.132;8.174;2024-02-15T02:48:53;30.13;;;11.87;;
83410;SDS011;73340;53.132;8.174;2024-02-15T02:51:19;26.40;;;11.77;;
83410;SDS011;73340;53.132;8.174;2024-02-15T02:53:44;23.23;;;10.63;;
83410;SDS011;73340;53.132;8.174;2024-02-15T02:56:09;24.23;;;11.43;;
83410;SDS011;73340;53.132;8.174;2024-02-15T02:58:35;22.03;;;10.03;;
83410;SDS011;73340;53.132;8.174;2024-02-15T03:01:00;24.73;;;10.40;;
83410;SDS011;73340;53.132;8.174;2024-02-15T03:03:25;26.02;;;10.60;;
83410;SDS011;73340;53.132;8.174;2024-02-15T03:05:50;25.77;;;10.23;;
83410;SDS011;73340;53.132;8.174;2024-02-15T03:08:16;21.50;;;10.07;;
83410;SDS011;73340;53.132;8.174;2024-02-15T03:10:42;27.92;;;10.70;;
83410;SDS011;73340;53.132;8.174;2024-02-15T03:13:07;23.70;;;10.65;;
83410;SDS011;73340;53.132;8.174;2024-02-15T03:15:33;25.45;;;10.30;;
83410;SDS011;73340;53.132;8.174;2024-02-15T03:17:59;22.63;;;10.20;;
83410;SDS011;73340;53.132;8.174;2024-02-15T03:20:24;23.50;;;9.73;;
83410;SDS011;73340;53.132;8.174;2024-02-15T03:22:50;22.10;;;9.82;;
83410;SDS011;73340;53.132;8.174;2024-02-15T03:25:16;26.40;;;10.80;;
83410;SDS011;73340;53.132;8.174;2024-02-15T03:27:42;24.90;;;10.20;;
83410;SDS011;73340;53.132;8.174;2024-02-15T03:30:07;21.27;;;9.30;;
83410;SDS011;73340;53.132;8.174;2024-02-15T03:32:33;20.48;;;8.82;;
83410;SDS011;73340;53.132;8.174;2024-02-15T03:34:59;22.63;;;9.37;;
83410;SDS011;73340;53.132;8.174;2024-02-15T03:37:26;21.30;;;9.30;;
83410;SDS011;73340;53.132;8.174;2024-02-15T03:39:51;19.97;;;9.10;;
83410;SDS011;73340;53.132;8.174;2024-02-15T03:42:16;22.53;;;8.53;;
83410;SDS011;73340;53.132;8.174;2024-02-15T03:44:41;22.63;;;9.13;;
83410;SDS011;73340;53.132;8.174;2024-02-15T03:47:06;21.83;;;7.63;;
83410;SDS011;73340;53.132;8.174;2024-02-15T03:49:32;16.80;;;7.50;;
83410;SDS011;73340;53.132;8.174;2024-02-15T03:51:57;17.73;;;8.00;;
83410;SDS011;73340;53.132;8.174;2024-02-15T03:54:24;20.15;;;8.77;;
83410;SDS011;73340;53.132;8.174;2024-02-15T03:56:49;18.23;;;7.95;;
83410;SDS011;73340;53.132;8.174;2024-02-15T03:59:18;16.00;;;6.88;;
83410;SDS011;73340;53.132;8.174;2024-02-15T04:01:46;18.83;;;8.00;;
83410;SDS011;73340;53.132;8.174;2024-02-15T04:04:12;18.55;;;7.88;;
83410;SDS011;73340;53.132;8.174;2024-02-15T04:06:38;21.80;;;7.82;;
83410;SDS011;73340;53.132;8.174;2024-02-15T04:09:03;19.53;;;8.43;;
83410;SDS011;73340;53.132;8.174;2024-02-15T04:11:29;19.10;;;7.78;;
83410;SDS011;73340;53.132;8.174;2024-02-15T04:13:54;22.10;;;8.15;;
83410;SDS011;73340;53.132;8.174;2024-02-15T04:16:22;17.65;;;8.23;;
83410;SDS011;73340;53.132;8.174;2024-02-15T04:18:47;24.50;;;7.30;;
83410;SDS011;73340;53.132;8.174;2024-02-15T04:21:12;22.43;;;8.50;;
83410;SDS011;73340;53.132;8.174;2024-02-15T04:23:38;20.77;;;8.03;;
83410;SDS011;73340;53.132;8.174;2024-02-15T04:26:04;19.48;;;7.85;;
83410;SDS011;73340;53.132;8.174;2024-02-15T04:28:29;20.63;;;8.70;;
83410;SDS011;73340;53.132;8.174;2024-02-15T04:30:54;20.97;;;7.83;;
83410;SDS011;73340;53.132;8.174;2024-02-15T04:33:20;18.35;;;7.85;;
83410;SDS011;73340;53.132;8.174;2024-02-15T04:35:45;22.50;;;8.77;;
83410;SDS011;73340;53.132;8.174;2024-02-15T04:38:11;19.42;;;7.80;;
83410;SDS011;73340;53.132;8.174;2024-02-15T04:40:36;20.27;;;8.80;;
83410;SDS011;73340;53.132;8.174;2024-02-15T04:43:03;21.00;;;9.23;;
83410;SDS011;73340;53.132;8.174;2024-02-15T04:45:29;22.23;;;8.65;;
83410;SDS011;73340;53.132;8.174;2024-02-15T04:47:55;25.02;;;8.93;;
83410;SDS011;73340;53.132;8.174;2024-02-15T04:50:26;23.50;;;9.43;;
83410;SDS011;73340;53.132;8.174;2024-02-15T04:52:51;21.70;;;9.07;;
83410;SDS011;73340;53.132;8.174;2024-02-15T04:55:16;18.27;;;7.83;;
83410;SDS011;73340;53.132;8.174;2024-02-15T04:57:42;23.35;;;8.45;;
83410;SDS011;73340;53.132;8.174;2024-02-15T05:00:08;20.67;;;8.77;;
83410;SDS011;73340;53.132;8.174;2024-02-15T05:02:37;22.73;;;8.75;;
83410;SDS011;73340;53.132;8.174;2024-02-15T05:05:06;20.90;;;8.15;;
83410;SDS011;73340;53.132;8.174;2024-02-15T05:07:32;17.70;;;7.68;;
83410;SDS011;73340;53.132;8.174;2024-02-15T05:09:58;27.23;;;10.23;;
83410;SDS011;73340;53.132;8.174;2024-02-15T05:12:23;23.80;;;8.97;;
83410;SDS011;73340;53.132;8.174;2024-02-15T05:14:49;28.13;;;9.13;;
83410;SDS011;73340;53.132;8.174;2024-02-15T05:17:15;23.27;;;9.43;;
83410;SDS011;73340;53.132;8.174;2024-02-15T05:19:40;27.70;;;11.17;;
83410;SDS011;73340;53.132;8.174;2024-02-15T05:22:05;27.13;;;10.50;;
83410;SDS011;73340;53.132;8.174;2024-02-15T05:24:31;27.48;;;11.02;;
83410;SDS011;73340;53.132;8.174;2024-02-15T05:26:57;28.17;;;11.40;;
83410;SDS011;73340;53.132;8.174;2024-02-15T05:29:22;28.13;;;10.90;;
83410;SDS011;73340;53.132;8.174;2024-02-15T05:31:48;23.23;;;9.70;;
83410;SDS011;73340;53.132;8.174;2024-02-15T05:34:16;25.38;;;10.95;;
83410;SDS011;73340;53.132;8.174;2024-02-15T05:36:41;28.70;;;10.27;;
83410;SDS011;73340;53.132;8.174;2024-02-15T05:39:07;24.10;;;11.13;;
83410;SDS011;73340;53.132;8.174;2024-02-15T05:41:33;24.88;;;9.70;;
83410;SDS011;73340;53.132;8.174;2024-02-15T05:43:59;24.67;;;10.60;;
83410;SDS011;73340;53.132;8.174;2024-02-15T05:46:24;27.23;;;11.15;;
83410;SDS011;73340;53.132;8.174;2024-02-15T05:48:50;27.87;;;11.27;;
83410;SDS011;73340;53.132;8.174;2024-02-15T05:51:16;28.42;;;13.25;;
83410;SDS011;73340;53.132;8.174;2024-02-15T05:53:41;25.13;;;11.10;;
83410;SDS011;73340;53.132;8.174;2024-02-15T05:56:07;25.13;;;9.48;;
83410;SDS011;73340;53.132;8.174;2024-02-15T05:58:33;31.10;;;11.93;;
83410;SDS011;73340;53.132;8.174;2024-02-15T06:00:59;27.08;;;10.25;;
83410;SDS011;73340;53.132;8.174;2024-02-15T06:03:30;27.73;;;11.52;;
83410;SDS011;73340;53.132;8.174;2024-02-15T06:05:58;30.02;;;11.48;;
83410;SDS011;73340;53.132;8.174;2024-02-15T06:08:26;27.27;;;10.55;;
83410;SDS011;73340;53.132;8.174;2024-02-15T06:10:52;32.83;;;11.40;;
83410;SDS011;73340;53.132;8.174;2024-02-15T06:13:18;26.30;;;11.80;;
83410;SDS011;73340;53.132;8.174;2024-02-15T06:15:43;27.88;;;11.73;;
83410;SDS011;73340;53.132;8.174;2024-02-15T06:18:08;32.50;;;11.73;;
83410;SDS011;73340;53.132;8.174;2024-02-15T06:20:37;33.13;;;12.23;;
83410;SDS011;73340;53.132;8.174;2024-02-15T06:23:04;33.28;;;13.02;;
83410;SDS011;73340;53.132;8.174;2024-02-15T06:25:40;31.35;;;12.13;;
83410;SDS011;73340;53.132;8.174;2024-02-15T06:28:05;35.88;;;13.27;;
83410;SDS011;73340;53.132;8.174;2024-02-15T06:30:39;34.70;;;14.05;;
83410;SDS011;73340;53.132;8.174;2024-02-15T06:33:22;38.00;;;13.27;;
83410;SDS011;73340;53.132;8.174;2024-02-15T06:36:06;41.85;;;14.73;;
83410;SDS011;73340;53.132;8.174;2024-02-15T06:38:51;35.90;;;13.00;;
83410;SDS011;73340;53.132;8.174;2024-02-15T06:41:34;38.80;;;13.57;;
83410;SDS011;73340;53.132;8.174;2024-02-15T06:44:00;34.63;;;13.23;;
83410;SDS011;73340;53.132;8.174;2024-02-15T06:46:25;42.00;;;14.50;;
83410;SDS011;73340;53.132;8.174;2024-02-15T06:48:50;40.97;;;15.20;;
83410;SDS011;73340;53.132;8.174;2024-02-15T06:51:15;38.30;;;15.37;;
83410;SDS011;73340;53.132;8.174;2024-02-15T06:53:41;35.40;;;15.40;;
83410;SDS011;73340;53.132;8.174;2024-02-15T06:56:09;39.42;;;15.35;;
83410;SDS011;73340;53.132;8.174;2024-02-15T06:58:35;32.78;;;14.57;;
83410;SDS011;73340;53.132;8.174;2024-02-15T07:01:00;41.80;;;15.93;;
83410;SDS011;73340;53.132;8.174;2024-02-15T07:03:25;38.77;;;15.57;;
83410;SDS011;73340;53.132;8.174;2024-02-15T07:05:50;45.95;;;15.13;;
83410;SDS011;73340;53.132;8.174;2024-02-15T07:08:16;34.00;;;15.63;;
83410;SDS011;73340;53.132;8.174;2024-02-15T07:10:41;44.90;;;15.03;;
83410;SDS011;73340;53.132;8.174;2024-02-15T07:13:06;32.40;;;14.53;;
83410;SDS011;73340;53.132;8.174;2024-02-15T07:15:32;36.13;;;15.70;;
83410;SDS011;73340;53.132;8.174;2024-02-15T07:17:58;122.47;;;25.15;;
83410;SDS011;73340;53.132;8.174;2024-02-15T07:20:23;43.30;;;17.73;;
83410;SDS011;73340;53.132;8.174;2024-02-15T07:22:49;49.47;;;21.10;;
83410;SDS011;73340;53.132;8.174;2024-02-15T07:25:14;46.93;;;17.83;;
83410;SDS011;73340;53.132;8.174;2024-02-15T07:27:39;38.93;;;14.90;;
83410;SDS011;73340;53.132;8.174;2024-02-15T07:30:04;37.47;;;15.50;;
83410;SDS011;73340;53.132;8.174;2024-02-15T07:32:31;32.65;;;14.73;;
83410;SDS011;73340;53.132;8.174;2024-02-15T07:34:56;34.15;;;14.43;;
83410;SDS011;73340;53.132;8.174;2024-02-15T07:37:21;36.13;;;15.45;;
83410;SDS011;73340;53.132;8.174;2024-02-15T07:39:51;34.13;;;14.00;;
83410;SDS011;73340;53.132;8.174;2024-02-15T07:42:16;45.40;;;18.07;;
83410;SDS011;73340;53.132;8.174;2024-02-15T07:44:41;47.13;;;19.17;;
83410;SDS011;73340;53.132;8.174;2024-02-15T07:47:08;37.83;;;15.60;;
83410;SDS011;73340;53.132;8.174;2024-02-15T07:49:35;34.33;;;15.07;;
83410;SDS011;73340;53.132;8.174;2024-02-15T07:52:01;36.63;;;14.05;;
83410;SDS011;73340;53.132;8.174;2024-02-15T07:54:26;31.63;;;15.63;;
83410;SDS011;73340;53.132;8.174;2024-02-15T07:56:53;33.63;;;14.57;;
83410;SDS011;73340;53.132;8.174;2024-02-15T07:59:18;33.57;;;14.67;;
83410;SDS011;73340;53.132;8.174;2024-02-15T08:01:43;33.90;;;13.90;;
83410;SDS011;73340;53.132;8.174;2024-02-15T08:04:11;37.47;;;14.98;;
83410;SDS011;73340;53.132;8.174;2024-02-15T08:06:36;33.85;;;15.20;;
83410;SDS011;73340;53.132;8.174;2024-02-15T08:09:03;35.60;;;15.63;;
83410;SDS011;73340;53.132;8.174;2024-02-15T08:11:31;34.95;;;14.63;;
83410;SDS011;73340;53.132;8.174;2024-02-15T08:13:56;32.92;;;14.35;;
83410;SDS011;73340;53.132;8.174;2024-02-15T08:16:24;34.40;;;13.50;;
83410;SDS011;73340;53.132;8.174;2024-02-15T08:18:52;31.08;;;13.00;;
83410;SDS011;73340;53.132;8.174;2024-02-15T08:21:24;36.92;;;14.35;;
83410;SDS011;73340;53.132;8.174;2024-02-15T08:23:50;36.90;;;15.20;;
83410;SDS011;73340;53.132;8.174;2024-02-15T08:26:15;38.77;;;14.63;;
83410;SDS011;73340;53.132;8.174;2024-02-15T08:28:41;39.05;;;15.10;;
83410;SDS011;73340;53.132;8.174;2024-02-15T08:31:07;32.35;;;14.45;;
83410;SDS011;73340;53.132;8.174;2024-02-15T08:33:33;29.02;;;12.88;;
83410;SDS011;73340;53.132;8.174;2024-02-15T08:35:58;30.23;;;12.53;;
83410;SDS011;73340;53.132;8.174;2024-02-15T08:38:23;29.23;;;13.25;;
83410;SDS011;73340;53.132;8.174;2024-02-15T08:40:49;26.30;;;12.18;;
83410;SDS011;73340;53.132;8.174;2024-02-15T08:43:14;28.77;;;13.53;;
83410;SDS011;73340;53.132;8.174;2024-02-15T08:45:40;26.40;;;12.82;;
83410;SDS011;73340;53.132;8.174;2024-02-15T08:48:06;28.55;;;12.60;;
83410;SDS011;73340;53.132;8.174;2024-02-15T08:50:32;29.10;;;12.60;;
83410;SDS011;73340;53.132;8.174;2024-02-15T08:52:57;34.73;;;13.13;;
83410;SDS011;73340;53.132;8.174;2024-02-15T08:55:22;31.13;;;12.70;;
83410;SDS011;73340;53.132;8.174;2024-02-15T08:57:52;27.65;;;12.32;;
83410;SDS011;73340;53.132;8.174;2024-02-15T09:00:17;29.58;;;12.55;;
83410;SDS011;73340;53.132;8.174;2024-02-15T09:02:45;27.40;;;11.93;;
83410;SDS011;73340;53.132;8.174;2024-02-15T09:05:11;26.40;;;12.50;;
83410;SDS011;73340;53.132;8.174;2024-02-15T09:07:42;26.70;;;11.57;;
83410;SDS011;73340;53.132;8.174;2024-02-15T09:10:08;26.80;;;12.15;;
83410;SDS011;73340;53.132;8.174;2024-02-15T09:12:34;26.35;;;12.93;;
83410;SDS011;73340;53.132;8.174;2024-02-15T09:15:01;26.02;;;11.75;;
83410;SDS011;73340;53.132;8.174;2024-02-15T09:17:27;34.00;;;15.83;;
83410;SDS011;73340;53.132;8.174;2024-02-15T09:19:52;47.33;;;23.03;;
83410;SDS011;73340;53.132;8.174;2024-02-15T09:22:18;28.55;;;12.38;;
83410;SDS011;73340;53.132;8.174;2024-02-15T09:24:43;27.00;;;12.43;;
83410;SDS011;73340;53.132;8.174;2024-02-15T09:27:08;28.63;;;12.77;;
83410;SDS011;73340;53.132;8.174;2024-02-15T09:29:36;28.60;;;13.15;;
83410;SDS011;73340;53.132;8.174;2024-02-15T09:32:03;32.28;;;14.40;;
83410;SDS011;73340;53.132;8.174;2024-02-15T09:34:29;31.88;;;13.32;;
83410;SDS011;73340;53.132;8.174;2024-02-15T09:36:54;30.48;;;14.07;;
83410;SDS011;73340;53.132;8.174;2024-02-15T09:39:21;32.60;;;14.38;;
83410;SDS011;73340;53.132;8.174;2024-02-15T09:41:48;33.53;;;14.05;;
83410;SDS011;73340;53.132;8.174;2024-02-15T09:44:18;27.48;;;13.25;;
83410;SDS011;73340;53.132;8.174;2024-02-15T09:46:44;30.87;;;15.43;;
83410;SDS011;73340;53.132;8.174;2024-02-15T09:49:11;38.28;;;14.63;;
83410;SDS011;73340;53.132;8.174;2024-02-15T09:51:36;32.75;;;14.77;;
83410;SDS011;73340;53.132;8.174;2024-02-15T09:54:02;37.03;;;16.92;;
83410;SDS011;73340;53.132;8.174;2024-02-15T09:56:27;40.88;;;17.60;;
83410;SDS011;73340;53.132;8.174;2024-02-15T09:58:53;36.40;;;16.02;;
83410;SDS011;73340;53.132;8.174;2024-02-15T10:01:19;36.58;;;16.98;;
83410;SDS011;73340;53.132;8.174;2024-02-15T10:03:46;34.75;;;16.48;;
83410;SDS011;73340;53.132;8.174;2024-02-15T10:06:13;39.63;;;16.90;;
83410;SDS011;73340;53.132;8.174;2024-02-15T10:08:39;35.83;;;15.80;;
83410;SDS011;73340;53.132;8.174;2024-02-15T10:11:07;33.30;;;16.10;;
83410;SDS011;73340;53.132;8.174;2024-02-15T10:13:35;36.92;;;16.80;;
83410;SDS011;73340;53.132;8.174;2024-02-15T10:16:13;39.10;;;17.05;;
83410;SDS011;73340;53.132;8.174;2024-02-15T10:18:38;38.22;;;17.60;;
83410;SDS011;73340;53.132;8.174;2024-02-15T10:21:04;35.33;;;15.30;;
83410;SDS011;73340;53.132;8.174;2024-02-15T10:23:29;33.87;;;16.43;;
83410;SDS011;73340;53.132;8.174;2024-02-15T10:25:54;39.43;;;17.53;;
83410;SDS011;73340;53.132;8.174;2024-02-15T10:28:21;36.28;;;17.25;;
83410;SDS011;73340;53.132;8.174;2024-02-15T10:30:48;35.35;;;16.67;;
83410;SDS011;73340;53.132;8.174;2024-02-15T10:33:19;36.47;;;16.80;;
83410;SDS011;73340;53.132;8.174;2024-02-15T10:35:46;39.78;;;17.63;;
83410;SDS011;73340;53.132;8.174;2024-02-15T10:38:12;39.30;;;16.50;;
83410;SDS011;73340;53.132;8.174;2024-02-15T10:40:38;38.40;;;17.13;;
83410;SDS011;73340;53.132;8.174;2024-02-15T10:43:06;44.20;;;17.52;;
83410;SDS011;73340;53.132;8.174;2024-02-15T10:45:32;40.30;;;17.20;;
83410;SDS011;73340;53.132;8.174;2024-02-15T10:47:57;41.42;;;17.30;;
83410;SDS011;73340;53.132;8.174;2024-02-15T10:50:23;38.73;;;17.10;;
83410;SDS011;73340;53.132;8.174;2024-02-15T10:52:54;36.10;;;17.13;;
83410;SDS011;73340;53.132;8.174;2024-02-15T10:55:40;33.42;;;16.25;;
83410;SDS011;73340;53.132;8.174;2024-02-15T11:00:36;36.50;;;19.10;;
83410;SDS011;73340;53.132;8.174;2024-02-15T11:05:29;46.08;;;20.70;;
83410;SDS011;73340;53.132;8.174;2024-02-15T11:07:55;41.10;;;16.45;;
83410;SDS011;73340;53.132;8.174;2024-02-15T11:10:20;32.10;;;16.30;;
83410;SDS011;73340;53.132;8.174;2024-02-15T11:12:45;39.97;;;16.55;;
83410;SDS011;73340;53.132;8.174;2024-02-15T11:15:12;27.98;;;13.85;;
83410;SDS011;73340;53.132;8.174;2024-02-15T11:17:58;32.30;;;15.30;;
83410;SDS011;73340;53.132;8.174;2024-02-15T11:22:58;29.27;;;14.38;;
83410;SDS011;73340;53.132;8.174;2024-02-15T11:25:36;33.20;;;15.38;;
83410;SDS011;73340;53.132;8.174;2024-02-15T11:30:31;27.65;;;13.05;;
83410;SDS011;73340;53.132;8.174;2024-02-15T11:32:57;23.67;;;12.90;;
83410;SDS011;73340;53.132;8.174;2024-02-15T11:35:24;28.10;;;13.65;;
83410;SDS011;73340;53.132;8.174;2024-02-15T11:42:47;38.05;;;18.05;;
83410;SDS011;73340;53.132;8.174;2024-02-15T11:45:14;22.67;;;12.90;;
83410;SDS011;73340;53.132;8.174;2024-02-15T11:47:40;22.48;;;12.10;;
83410;SDS011;73340;53.132;8.174;2024-02-15T11:50:13;26.88;;;13.10;;
83410;SDS011;73340;53.132;8.174;2024-02-15T11:52:43;19.70;;;11.30;;
83410;SDS011;73340;53.132;8.174;2024-02-15T11:55:08;24.58;;;13.27;;
83410;SDS011;73340;53.132;8.174;2024-02-15T11:57:36;27.40;;;12.95;;
83410;SDS011;73340;53.132;8.174;2024-02-15T12:00:04;21.58;;;11.88;;
83410;SDS011;73340;53.132;8.174;2024-02-15T12:02:48;20.27;;;10.57;;
83410;SDS011;73340;53.132;8.174;2024-02-15T12:05:32;18.92;;;10.90;;
83410;SDS011;73340;53.132;8.174;2024-02-15T12:08:16;18.85;;;11.45;;
83410;SDS011;73340;53.132;8.174;2024-02-15T12:11:00;18.75;;;10.80;;
83410;SDS011;73340;53.132;8.174;2024-02-15T12:13:49;24.15;;;12.13;;
83410;SDS011;73340;53.132;8.174;2024-02-15T12:16:33;18.50;;;11.10;;
83410;SDS011;73340;53.132;8.174;2024-02-15T12:19:17;19.50;;;10.77;;
83410;SDS011;73340;53.132;8.174;2024-02-15T12:21:43;20.48;;;11.25;;
83410;SDS011;73340;53.132;8.174;2024-02-15T12:24:08;21.43;;;9.80;;
83410;SDS011;73340;53.132;8.174;2024-02-15T12:26:33;16.27;;;10.37;;
83410;SDS011;73340;53.132;8.174;2024-02-15T12:29:00;19.00;;;10.30;;
83410;SDS011;73340;53.132;8.174;2024-02-15T12:31:26;17.08;;;10.73;;
83410;SDS011;73340;53.132;8.174;2024-02-15T12:34:04;20.00;;;10.82;;
83410;SDS011;73340;53.132;8.174;2024-02-15T12:36:35;18.70;;;10.23;;
83410;SDS011;73340;53.132;8.174;2024-02-15T12:39:04;24.20;;;11.25;;
83410;SDS011;73340;53.132;8.174;2024-02-15T12:41:39;18.63;;;10.55;;
83410;SDS011;73340;53.132;8.174;2024-02-15T12:44:07;17.60;;;10.15;;
83410;SDS011;73340;53.132;8.174;2024-02-15T12:46:38;23.88;;;11.63;;
83410;SDS011;73340;53.132;8.174;2024-02-15T12:49:07;16.05;;;10.60;;
83410;SDS011;73340;53.132;8.174;2024-02-15T12:51:32;15.50;;;9.57;;
83410;SDS011;73340;53.132;8.174;2024-02-15T12:54:07;22.20;;;13.33;;
83410;SDS011;73340;53.132;8.174;2024-02-15T12:56:33;32.35;;;19.08;;
83410;SDS011;73340;53.132;8.174;2024-02-15T12:58:58;14.90;;;9.13;;
83410;SDS011;73340;53.132;8.174;2024-02-15T13:01:23;24.40;;;10.33;;
83410;SDS011;73340;53.132;8.174;2024-02-15T13:03:51;13.23;;;7.82;;
83410;SDS011;73340;53.132;8.174;2024-02-15T13:06:16;16.42;;;9.00;;
83410;SDS011;73340;53.132;8.174;2024-02-15T13:08:43;21.35;;;9.95;;
83410;SDS011;73340;53.132;8.174;2024-02-15T13:11:13;16.00;;;8.88;;
83410;SDS011;73340;53.132;8.174;2024-02-15T13:13:40;14.50;;;8.27;;
83410;SDS011;73340;53.132;8.174;2024-02-15T13:16:07;11.75;;;7.95;;
83410;SDS011;73340;53.132;8.174;2024-02-15T13:18:32;11.18;;;6.90;;
83410;SDS011;73340;53.132;8.174;2024-02-15T13:20:57;12.17;;;7.97;;
83410;SDS011;73340;53.132;8.174;2024-02-15T13:23:22;10.60;;;6.97;;
83410;SDS011;73340;53.132;8.174;2024-02-15T13:25:50;8.35;;;6.60;;
83410;SDS011;73340;53.132;8.174;2024-02-15T13:28:15;11.68;;;6.95;;
83410;SDS011;73340;53.132;8.174;2024-02-15T13:30:41;11.13;;;6.47;;
83410;SDS011;73340;53.132;8.174;2024-02-15T13:33:08;10.70;;;6.43;;
83410;SDS011;73340;53.132;8.174;2024-02-15T13:35:33;11.30;;;7.03;;
83410;SDS011;73340;53.132;8.174;2024-02-15T13:37:59;9.45;;;5.75;;
83410;SDS011;73340;53.132;8.174;2024-02-15T13:40:25;8.37;;;5.73;;
83410;SDS011;73340;53.132;8.174;2024-02-15T13:42:51;14.70;;;7.22;;
83410;SDS011;73340;53.132;8.174;2024-02-15T13:47:48;9.30;;;6.13;;
83410;SDS011;73340;53.132;8.174;2024-02-15T13:50:13;10.52;;;6.28;;
83410;SDS011;73340;53.132;8.174;2024-02-15T13:52:42;12.38;;;6.80;;
83410;SDS011;73340;53.132;8.174;2024-02-15T13:55:10;10.18;;;6.25;;
83410;SDS011;73340;53.132;8.174;2024-02-15T13:57:36;12.32;;;6.88;;
83410;SDS011;73340;53.132;8.174;2024-02-15T14:00:02;13.13;;;8.00;;
83410;SDS011;73340;53.132;8.174;2024-02-15T14:02:27;10.63;;;6.55;;
83410;SDS011;73340;53.132;8.174;2024-02-15T14:04:53;26.77;;;13.63;;
83410;SDS011;73340;53.132;8.174;2024-02-15T14:07:18;15.23;;;8.67;;
83410;SDS011;73340;53.132;8.174;2024-02-15T14:09:44;14.68;;;9.27;;
83410;SDS011;73340;53.132;8.174;2024-02-15T14:12:09;18.30;;;7.27;;
83410;SDS011;73340;53.132;8.174;2024-02-15T14:14:34;10.27;;;6.47;;
83410;SDS011;73340;53.132;8.174;2024-02-15T14:16:59;9.57;;;6.07;;
83410;SDS011;73340;53.132;8.174;2024-02-15T14:19:25;13.93;;;7.63;;
83410;SDS011;73340;53.132;8.174;2024-02-15T14:21:51;19.42;;;8.00;;
83410;SDS011;73340;53.132;8.174;2024-02-15T14:24:19;11.85;;;7.18;;
83410;SDS011;73340;53.132;8.174;2024-02-15T14:26:47;12.18;;;7.28;;
83410;SDS011;73340;53.132;8.174;2024-02-15T14:29:13;11.47;;;7.60;;
83410;SDS011;73340;53.132;8.174;2024-02-15T14:31:39;11.30;;;7.13;;
83410;SDS011;73340;53.132;8.174;2024-02-15T14:34:23;10.75;;;7.07;;
83410;SDS011;73340;53.132;8.174;2024-02-15T14:36:49;12.60;;;7.07;;
83410;SDS011;73340;53.132;8.174;2024-02-15T14:39:15;13.73;;;7.75;;
83410;SDS011;73340;53.132;8.174;2024-02-15T14:41:40;11.70;;;7.45;;